createdAt,value
2019-03-18T00:00:29.228Z,0.00
2019-03-18T00:01:29.204Z,0.00
2019-03-18T00:02:29.193Z,0.00
2019-03-18T00:03:29.181Z,0.00
2019-03-18T00:04:29.169Z,0.00
2019-03-18T00:05:29.235Z,0.00
2019-03-18T00:06:29.220Z,0.00
2019-03-18T00:07:29.136Z,0.00
2019-03-18T00:08:29.125Z,0.00
2019-03-18T00:09:29.113Z,0.00
2019-03-18T00:10:29.106Z,0.00
2019-03-18T00:11:29.104Z,0.00
2019-03-18T00:12:29.082Z,0.00
2019-03-18T00:13:29.072Z,0.00
2019-03-18T00:14:29.083Z,0.00
2019-03-18T00:15:29.048Z,0.00
2019-03-18T00:16:29.053Z,0.00
2019-03-18T00:17:29.025Z,0.00
2019-03-18T00:18:29.014Z,0.00
2019-03-18T00:19:29.006Z,0.00
2019-03-18T00:20:29.027Z,0.00
2019-03-18T00:21:28.992Z,0.00
2019-03-18T00:22:28.973Z,0.00
2019-03-18T00:23:28.959Z,0.00
2019-03-18T00:24:28.951Z,0.00
2019-03-18T00:25:28.939Z,0.00
2019-03-18T00:26:28.936Z,0.00
2019-03-18T00:27:28.916Z,0.00
2019-03-18T00:28:28.920Z,0.00
2019-03-18T00:29:28.893Z,0.00
2019-03-18T00:30:28.882Z,0.00
2019-03-18T00:31:28.881Z,0.00
2019-03-18T00:32:28.859Z,0.00
2019-03-18T00:33:28.851Z,0.00
2019-03-18T00:34:28.836Z,0.00
2019-03-18T00:35:28.831Z,0.00
2019-03-18T00:36:28.828Z,0.00
2019-03-18T00:37:28.810Z,0.00
2019-03-18T00:38:28.793Z,0.00
2019-03-18T00:39:28.784Z,0.00
2019-03-18T00:40:28.773Z,0.00
2019-03-18T00:41:28.770Z,0.00
2019-03-18T00:42:28.751Z,0.00
2019-03-18T00:43:28.739Z,0.00
2019-03-18T00:44:28.730Z,0.00
2019-03-18T00:45:28.724Z,0.00
2019-03-18T00:46:28.713Z,0.00
2019-03-18T00:47:28.694Z,0.00
2019-03-18T00:48:28.681Z,0.00
2019-03-18T00:49:28.674Z,0.00
2019-03-18T00:50:28.672Z,0.00
2019-03-18T00:51:28.659Z,0.00
2019-03-18T00:52:28.645Z,0.00
2019-03-18T00:53:28.638Z,0.00
2019-03-18T00:54:28.632Z,0.00
2019-03-18T00:55:28.620Z,0.00
2019-03-18T00:56:28.604Z,0.00
2019-03-18T00:57:28.581Z,0.00
2019-03-18T00:58:28.572Z,0.00
2019-03-18T00:59:28.562Z,0.00
2019-03-18T01:00:28.548Z,0.00
2019-03-18T01:01:28.549Z,0.00
2019-03-18T01:02:28.528Z,0.00
2019-03-18T01:03:28.517Z,0.00
2019-03-18T01:04:28.504Z,0.00
2019-03-18T01:05:28.493Z,0.00
2019-03-18T01:06:28.491Z,0.00
2019-03-18T01:07:28.472Z,0.00
2019-03-18T01:08:28.464Z,0.00
2019-03-18T01:09:28.451Z,0.00
2019-03-18T01:10:28.441Z,0.00
2019-03-18T01:11:28.435Z,0.00
2019-03-18T01:12:28.461Z,0.00
2019-03-18T01:13:28.407Z,0.00
2019-03-18T01:14:28.407Z,0.00
2019-03-18T01:15:28.826Z,0.00
2019-03-18T01:16:28.458Z,0.00
2019-03-18T01:17:28.367Z,0.00
2019-03-18T01:18:28.365Z,0.00
2019-03-18T01:19:28.351Z,0.00
2019-03-18T01:20:28.392Z,0.00
2019-03-18T01:21:28.326Z,0.00
2019-03-18T01:22:28.354Z,0.00
2019-03-18T01:23:28.308Z,0.00
2019-03-18T01:24:28.286Z,0.00
2019-03-18T01:25:28.276Z,0.00
2019-03-18T01:26:28.278Z,0.00
2019-03-18T01:27:28.272Z,0.00
2019-03-18T01:28:28.240Z,0.00
2019-03-18T01:29:28.227Z,0.00
2019-03-18T01:30:28.215Z,0.00
2019-03-18T01:31:28.231Z,0.00
2019-03-18T01:32:28.205Z,0.00
2019-03-18T01:33:28.185Z,0.00
2019-03-18T01:34:28.183Z,0.00
2019-03-18T01:35:28.191Z,0.00
2019-03-18T01:36:28.212Z,0.00
2019-03-18T01:37:28.177Z,0.00
2019-03-18T01:38:28.132Z,0.00
2019-03-18T01:39:28.119Z,0.00
2019-03-18T01:40:28.107Z,0.00
2019-03-18T01:41:28.096Z,0.00
2019-03-18T01:42:28.098Z,0.00
2019-03-18T01:43:28.132Z,0.00
2019-03-18T01:44:28.066Z,0.00
2019-03-18T01:45:40.181Z,0.00
2019-03-18T01:46:29.104Z,0.00
2019-03-18T01:47:28.045Z,0.00
2019-03-18T01:48:28.024Z,0.00
2019-03-18T01:49:28.030Z,0.00
2019-03-18T01:50:27.999Z,0.00
2019-03-18T01:51:27.988Z,0.00
2019-03-18T01:52:27.983Z,0.00
2019-03-18T01:53:27.973Z,0.00
2019-03-18T01:54:27.953Z,0.00
2019-03-18T01:55:27.944Z,0.00
2019-03-18T01:56:27.934Z,0.00
2019-03-18T01:57:27.926Z,0.00
2019-03-18T01:58:27.911Z,0.00
2019-03-18T01:59:27.902Z,0.00
2019-03-18T02:00:27.885Z,0.00
2019-03-18T02:01:27.883Z,0.00
2019-03-18T02:02:27.883Z,0.00
2019-03-18T02:03:27.869Z,0.00
2019-03-18T02:04:27.842Z,0.00
2019-03-18T02:05:27.832Z,0.00
2019-03-18T02:06:27.819Z,0.00
2019-03-18T02:07:27.815Z,0.00
2019-03-18T02:08:27.800Z,0.00
2019-03-18T02:09:27.803Z,0.00
2019-03-18T02:10:27.789Z,0.00
2019-03-18T02:11:27.763Z,0.00
2019-03-18T02:12:27.762Z,0.00
2019-03-18T02:13:27.738Z,0.00
2019-03-18T02:14:27.732Z,0.00
2019-03-18T02:15:27.718Z,0.00
2019-03-18T02:16:27.707Z,0.00
2019-03-18T02:17:27.766Z,0.00
2019-03-18T02:18:27.686Z,0.00
2019-03-18T02:19:27.675Z,0.00
2019-03-18T02:20:27.663Z,0.00
2019-03-18T02:21:27.684Z,0.00
2019-03-18T02:22:27.650Z,0.00
2019-03-18T02:23:27.638Z,0.00
2019-03-18T02:24:27.634Z,0.00
2019-03-18T02:25:27.629Z,0.00
2019-03-18T02:26:27.625Z,0.00
2019-03-18T02:27:27.612Z,0.00
2019-03-18T02:28:27.583Z,0.00
2019-03-18T02:29:27.566Z,0.00
2019-03-18T02:30:27.561Z,0.00
2019-03-18T02:31:27.538Z,0.00
2019-03-18T02:32:27.555Z,0.00
2019-03-18T02:33:27.515Z,0.00
2019-03-18T02:34:27.511Z,0.00
2019-03-18T02:35:27.495Z,0.00
2019-03-18T02:36:27.484Z,0.00
2019-03-18T02:37:27.481Z,0.00
2019-03-18T02:38:27.467Z,0.00
2019-03-18T02:39:27.458Z,0.00
2019-03-18T02:40:27.440Z,0.00
2019-03-18T02:41:27.439Z,0.00
2019-03-18T02:42:27.430Z,0.00
2019-03-18T02:43:27.406Z,0.00
2019-03-18T02:44:27.392Z,0.00
2019-03-18T02:45:27.385Z,0.00
2019-03-18T02:46:27.374Z,0.00
2019-03-18T02:47:27.375Z,0.00
2019-03-18T02:48:27.362Z,0.00
2019-03-18T02:49:27.339Z,0.00
2019-03-18T02:50:27.328Z,0.00
2019-03-18T02:51:27.319Z,0.00
2019-03-18T02:52:27.306Z,0.00
2019-03-18T02:53:27.311Z,0.00
2019-03-18T02:54:27.294Z,0.00
2019-03-18T02:55:27.274Z,0.00
2019-03-18T02:56:27.272Z,0.00
2019-03-18T02:57:27.250Z,0.00
2019-03-18T02:58:27.252Z,0.00
2019-03-18T02:59:27.229Z,0.00
2019-03-18T03:00:27.220Z,0.00
2019-03-18T03:01:27.206Z,0.00
2019-03-18T03:02:27.203Z,0.00
2019-03-18T03:03:27.198Z,0.00
2019-03-18T03:04:27.178Z,0.00
2019-03-18T03:05:27.174Z,0.00
2019-03-18T03:06:27.150Z,0.00
2019-03-18T03:07:27.143Z,0.00
2019-03-18T03:08:27.149Z,0.00
2019-03-18T03:09:27.117Z,0.00
2019-03-18T03:10:27.104Z,0.00
2019-03-18T03:11:27.095Z,0.00
2019-03-18T03:12:27.083Z,0.00
2019-03-18T03:13:27.082Z,0.00
2019-03-18T03:14:27.061Z,0.00
2019-03-18T03:15:27.049Z,0.00
2019-03-18T03:16:27.772Z,0.00
2019-03-18T03:17:27.026Z,0.00
2019-03-18T03:18:27.026Z,0.00
2019-03-18T03:19:27.004Z,0.00
2019-03-18T03:20:26.998Z,0.00
2019-03-18T03:21:26.983Z,0.00
2019-03-18T03:22:26.976Z,0.00
2019-03-18T03:23:26.977Z,0.00
2019-03-18T03:24:26.951Z,0.00
2019-03-18T03:25:26.942Z,0.00
2019-03-18T03:26:26.937Z,0.00
2019-03-18T03:27:26.922Z,0.00
2019-03-18T03:28:26.913Z,0.00
2019-03-18T03:29:26.894Z,0.00
2019-03-18T03:30:26.885Z,0.00
2019-03-18T03:31:26.881Z,0.00
2019-03-18T03:32:26.883Z,0.00
2019-03-18T03:33:26.860Z,0.00
2019-03-18T03:34:26.839Z,0.00
2019-03-18T03:35:26.840Z,0.00
2019-03-18T03:36:26.814Z,0.00
2019-03-18T03:37:26.806Z,0.00
2019-03-18T03:38:26.803Z,0.00
2019-03-18T03:39:26.784Z,0.00
2019-03-18T03:40:26.773Z,0.00
2019-03-18T03:41:26.764Z,0.00
2019-03-18T03:42:26.751Z,0.00
2019-03-18T03:43:26.749Z,0.00
2019-03-18T03:44:26.729Z,0.00
2019-03-18T03:45:26.731Z,0.00
2019-03-18T03:46:41.884Z,0.00
2019-03-18T03:47:27.693Z,0.00
2019-03-18T03:48:26.692Z,0.00
2019-03-18T03:49:26.672Z,0.00
2019-03-18T03:50:26.663Z,0.00
2019-03-18T03:51:26.649Z,0.00
2019-03-18T03:52:26.641Z,0.00
2019-03-18T03:53:30.632Z,0.00
2019-03-18T03:54:26.619Z,0.00
2019-03-18T03:55:26.604Z,0.00
2019-03-18T03:56:26.594Z,0.00
2019-03-18T03:57:26.583Z,0.00
2019-03-18T03:58:26.584Z,0.00
2019-03-18T03:59:26.565Z,0.00
2019-03-18T04:00:26.566Z,0.00
2019-03-18T04:01:29.509Z,0.00
2019-03-18T04:02:26.531Z,0.00
2019-03-18T04:03:38.338Z,0.00
2019-03-18T04:04:27.506Z,0.00
2019-03-18T04:05:26.494Z,0.00
2019-03-18T04:06:26.497Z,0.00
2019-03-18T04:07:26.472Z,0.00
2019-03-18T04:08:26.473Z,0.00
2019-03-18T04:09:26.471Z,0.00
2019-03-18T04:10:26.439Z,0.00
2019-03-18T04:11:26.444Z,0.00
2019-03-18T04:12:26.427Z,0.00
2019-03-18T04:13:26.412Z,0.00
2019-03-18T04:14:26.424Z,0.00
2019-03-18T04:15:26.382Z,0.00
2019-03-18T04:16:26.372Z,0.00
2019-03-18T04:17:26.361Z,0.00
2019-03-18T04:18:26.355Z,0.00
2019-03-18T04:19:26.349Z,0.00
2019-03-18T04:20:26.327Z,0.00
2019-03-18T04:21:26.315Z,0.00
2019-03-18T04:22:26.306Z,0.00
2019-03-18T04:23:26.297Z,0.00
2019-03-18T04:24:26.296Z,0.00
2019-03-18T04:25:26.274Z,0.00
2019-03-18T04:26:26.260Z,0.00
2019-03-18T04:27:26.249Z,0.00
2019-03-18T04:28:26.241Z,0.00
2019-03-18T04:29:26.244Z,0.00
2019-03-18T04:30:26.233Z,0.00
2019-03-18T04:31:26.220Z,0.00
2019-03-18T04:32:26.195Z,0.00
2019-03-18T04:33:26.184Z,0.00
2019-03-18T04:34:26.184Z,0.00
2019-03-18T04:35:26.159Z,0.00
2019-03-18T04:36:26.151Z,0.00
2019-03-18T04:37:26.137Z,0.00
2019-03-18T04:38:26.130Z,0.00
2019-03-18T04:39:26.129Z,0.00
2019-03-18T04:40:26.106Z,0.00
2019-03-18T04:41:26.097Z,0.00
2019-03-18T04:42:26.084Z,0.00
2019-03-18T04:43:26.090Z,0.00
2019-03-18T04:44:26.070Z,0.00
2019-03-18T04:45:26.068Z,0.00
2019-03-18T04:46:26.040Z,0.00
2019-03-18T04:47:26.026Z,0.00
2019-03-18T04:48:26.015Z,0.00
2019-03-18T04:49:26.019Z,0.00
2019-03-18T04:50:25.999Z,0.00
2019-03-18T04:51:25.984Z,0.00
2019-03-18T04:52:25.971Z,0.00
2019-03-18T04:53:25.961Z,0.00
2019-03-18T04:54:25.962Z,0.00
2019-03-18T04:55:25.941Z,0.00
2019-03-18T09:42:38.697Z,444.38
2019-03-18T09:43:38.675Z,320.62
2019-03-18T09:44:38.664Z,236.25
2019-03-18T09:45:38.654Z,483.75
2019-03-18T09:46:38.643Z,506.25
2019-03-18T09:47:38.642Z,298.12
2019-03-18T09:48:38.624Z,495.00
2019-03-18T09:49:38.608Z,438.75
2019-03-18T09:50:38.599Z,298.12
2019-03-18T09:51:38.589Z,511.88
2019-03-18T09:52:38.583Z,478.12
2019-03-18T09:53:38.565Z,461.25
2019-03-18T09:54:38.556Z,410.62
2019-03-18T09:55:38.542Z,348.75
2019-03-18T09:56:38.531Z,337.50
2019-03-18T09:57:38.530Z,343.12
2019-03-18T09:58:38.508Z,320.62
2019-03-18T09:59:38.497Z,433.12
2019-03-18T10:00:38.490Z,253.12
2019-03-18T10:01:38.476Z,253.12
2019-03-18T10:02:38.472Z,264.38
2019-03-18T10:03:38.455Z,247.50
2019-03-18T10:04:38.442Z,253.12
2019-03-18T10:05:38.432Z,247.50
2019-03-18T10:06:38.419Z,275.62
2019-03-18T10:07:38.417Z,579.38
2019-03-18T10:08:38.397Z,365.62
2019-03-18T10:09:38.388Z,506.25
2019-03-18T10:10:38.375Z,534.38
2019-03-18T10:11:38.364Z,562.50
2019-03-18T10:12:38.368Z,798.75
2019-03-18T10:13:38.341Z,1091.25
2019-03-18T10:14:38.338Z,1158.75
2019-03-18T10:15:38.322Z,1040.62
2019-03-18T10:16:38.309Z,995.62
2019-03-18T10:17:38.297Z,1209.38
2019-03-18T10:18:38.296Z,1411.88
2019-03-18T10:19:38.278Z,1524.38
2019-03-18T10:20:38.267Z,1558.12
2019-03-18T10:21:38.252Z,1552.50
2019-03-18T10:22:38.240Z,1569.38
2019-03-18T10:23:38.238Z,1485.00
2019-03-18T10:24:38.219Z,1490.62
2019-03-18T10:25:38.209Z,1456.88
2019-03-18T10:26:38.197Z,1378.12
2019-03-18T10:27:38.251Z,123.75
2019-03-18T10:28:38.199Z,123.75
2019-03-18T10:29:38.162Z,174.38
2019-03-18T10:30:38.156Z,1243.12
2019-03-18T10:31:38.142Z,1591.88
2019-03-18T10:32:38.129Z,1586.25
2019-03-18T10:33:38.128Z,1608.75
2019-03-18T10:34:38.109Z,1496.25
2019-03-18T10:35:38.103Z,1361.25
2019-03-18T10:36:38.086Z,1338.75
2019-03-18T10:37:38.075Z,1400.62
2019-03-18T10:38:38.078Z,1440.00
2019-03-18T10:39:38.053Z,1406.25
2019-03-18T10:40:38.041Z,1355.62
2019-03-18T10:41:38.031Z,810.00
2019-03-18T10:42:38.020Z,270.00
2019-03-18T10:43:38.025Z,450.00
2019-03-18T10:44:38.003Z,388.12
2019-03-18T10:45:37.990Z,376.88
2019-03-18T10:46:37.979Z,393.75
2019-03-18T10:47:37.965Z,405.00
2019-03-18T10:48:37.965Z,202.50
2019-03-18T10:49:46.171Z,191.25
2019-03-18T10:50:38.940Z,174.38
2019-03-18T10:51:37.923Z,196.88
2019-03-18T10:52:37.912Z,157.50
2019-03-18T10:53:37.912Z,140.62
2019-03-18T10:54:37.889Z,151.88
2019-03-18T10:55:37.889Z,208.12
2019-03-18T10:56:37.867Z,388.12
2019-03-18T10:57:37.856Z,405.00
2019-03-18T10:58:37.856Z,382.50
2019-03-18T10:59:37.834Z,371.25
2019-03-18T11:00:37.822Z,348.75
2019-03-18T11:01:37.810Z,337.50
2019-03-18T11:02:37.800Z,348.75
2019-03-18T11:03:38.977Z,365.62
2019-03-18T11:04:37.779Z,405.00
2019-03-18T11:05:37.768Z,405.00
2019-03-18T11:06:37.758Z,410.62
2019-03-18T11:07:37.745Z,354.38
2019-03-18T11:08:37.744Z,393.75
2019-03-18T11:09:37.725Z,388.12
2019-03-18T11:10:37.712Z,298.12
2019-03-18T11:11:37.717Z,382.50
2019-03-18T11:12:37.689Z,388.12
2019-03-18T11:13:37.685Z,461.25
2019-03-18T11:14:37.667Z,427.50
2019-03-18T11:15:37.659Z,461.25
2019-03-18T11:16:37.645Z,455.62
2019-03-18T11:17:37.635Z,337.50
2019-03-18T11:18:37.632Z,388.12
2019-03-18T11:19:37.613Z,354.38
2019-03-18T11:20:37.601Z,264.38
2019-03-18T11:21:37.591Z,270.00
2019-03-18T11:22:37.580Z,438.75
2019-03-18T11:23:37.578Z,500.62
2019-03-18T11:24:37.556Z,444.38
2019-03-18T11:25:37.546Z,444.38
2019-03-18T11:26:37.533Z,523.12
2019-03-18T11:27:37.523Z,736.88
2019-03-18T11:28:37.522Z,1012.50
2019-03-18T11:29:37.500Z,230.62
2019-03-18T11:30:37.491Z,1226.25
2019-03-18T11:31:37.479Z,461.25
2019-03-18T11:32:37.472Z,298.12
2019-03-18T11:33:37.477Z,247.50
2019-03-18T11:34:37.447Z,230.62
2019-03-18T11:35:37.439Z,202.50
2019-03-18T11:36:37.424Z,168.75
2019-03-18T11:37:37.412Z,146.25
2019-03-18T11:38:37.407Z,123.75
2019-03-18T11:39:37.400Z,101.25
2019-03-18T11:40:37.380Z,90.00
2019-03-18T11:41:38.524Z,73.12
2019-03-18T11:42:37.356Z,67.50
2019-03-18T11:43:37.344Z,56.25
2019-03-18T11:44:37.342Z,45.00
2019-03-18T11:45:37.324Z,39.38
2019-03-18T11:46:40.237Z,39.38
2019-03-18T11:47:37.300Z,45.00
2019-03-18T11:48:37.290Z,50.62
2019-03-18T11:49:39.851Z,61.88
2019-03-18T11:50:37.268Z,67.50
2019-03-18T11:51:37.260Z,67.50
2019-03-18T11:52:37.245Z,61.88
2019-03-18T11:53:37.233Z,56.25
2019-03-18T11:54:37.251Z,50.62
2019-03-18T11:55:37.213Z,56.25
2019-03-18T11:56:37.199Z,90.00
2019-03-18T11:57:37.190Z,185.62
2019-03-18T11:58:37.176Z,151.88
2019-03-18T11:59:37.178Z,135.00
2019-03-18T12:00:37.154Z,129.38
2019-03-18T12:01:37.144Z,146.25
2019-03-18T12:02:37.132Z,123.75
2019-03-18T12:03:37.120Z,112.50
2019-03-18T12:04:37.117Z,129.38
2019-03-18T12:05:37.099Z,157.50
2019-03-18T12:06:37.088Z,180.00
2019-03-18T12:07:37.077Z,151.88
2019-03-18T12:08:37.065Z,140.62
2019-03-18T12:09:37.063Z,151.88
2019-03-18T12:10:37.042Z,168.75
2019-03-18T12:11:37.032Z,787.50
2019-03-18T12:12:37.022Z,905.62
2019-03-18T12:13:37.009Z,832.50
2019-03-18T12:14:37.009Z,922.50
2019-03-18T12:15:36.986Z,196.88
2019-03-18T12:16:36.977Z,185.62
2019-03-18T12:17:36.965Z,208.12
2019-03-18T12:18:36.953Z,219.38
2019-03-18T12:19:36.957Z,208.12
2019-03-18T12:20:36.933Z,202.50
2019-03-18T12:21:36.922Z,281.25
2019-03-18T12:22:36.908Z,275.62
2019-03-18T12:23:36.900Z,376.88
2019-03-18T12:24:36.898Z,264.38
2019-03-18T12:25:36.883Z,253.12
2019-03-18T12:26:36.864Z,326.25
2019-03-18T12:27:36.855Z,360.00
2019-03-18T12:28:36.841Z,258.75
2019-03-18T12:29:36.840Z,241.88
2019-03-18T12:30:36.820Z,202.50
2019-03-18T12:31:36.810Z,208.12
2019-03-18T12:32:36.816Z,461.25
2019-03-18T12:33:36.787Z,1530.00
2019-03-18T12:34:36.786Z,1760.62
2019-03-18T12:35:36.764Z,337.50
2019-03-18T12:36:36.758Z,562.50
2019-03-18T12:37:36.742Z,517.50
2019-03-18T12:38:36.731Z,1378.12
2019-03-18T12:39:36.729Z,1417.50
2019-03-18T12:40:36.710Z,1192.50
2019-03-18T12:41:36.699Z,1254.38
2019-03-18T12:42:36.690Z,1327.50
2019-03-18T12:43:36.677Z,1310.62
2019-03-18T12:44:36.676Z,1591.88
2019-03-18T12:45:36.657Z,1535.62
2019-03-18T12:46:36.642Z,1366.88
2019-03-18T12:47:36.633Z,1648.12
2019-03-18T12:48:36.621Z,1451.25
2019-03-18T12:49:36.617Z,1226.25
2019-03-18T12:50:53.933Z,1417.50
2019-03-18T12:51:37.586Z,1327.50
2019-03-18T12:52:36.578Z,1372.50
2019-03-18T12:53:36.565Z,1608.75
2019-03-18T12:54:36.575Z,1361.25
2019-03-18T12:55:36.542Z,1575.00
2019-03-18T12:56:36.532Z,1440.00
2019-03-18T12:57:36.521Z,1198.12
2019-03-18T12:58:36.509Z,1074.38
2019-03-18T12:59:36.501Z,720.00
2019-03-18T13:00:36.496Z,1260.00
2019-03-18T13:01:36.478Z,1063.12
2019-03-18T13:02:36.469Z,990.00
2019-03-18T13:03:36.455Z,877.50
2019-03-18T13:04:36.447Z,421.88
2019-03-18T13:05:36.442Z,343.12
2019-03-18T13:06:36.425Z,275.62
2019-03-18T13:07:36.414Z,298.12
2019-03-18T13:08:36.404Z,630.00
2019-03-18T13:09:36.389Z,1018.12
2019-03-18T13:10:36.387Z,388.12
2019-03-18T13:11:36.369Z,393.75
2019-03-18T13:12:36.360Z,236.25
2019-03-18T13:13:36.347Z,253.12
2019-03-18T13:14:36.334Z,208.12
2019-03-18T13:15:36.332Z,1383.75
2019-03-18T13:16:36.317Z,371.25
2019-03-18T13:17:36.301Z,736.88
2019-03-18T13:18:36.290Z,410.62
2019-03-18T13:19:36.294Z,275.62
2019-03-18T13:20:36.278Z,213.75
2019-03-18T13:21:36.258Z,241.88
2019-03-18T13:22:36.247Z,253.12
2019-03-18T13:23:36.237Z,180.00
2019-03-18T13:24:36.223Z,163.12
2019-03-18T13:25:36.225Z,151.88
2019-03-18T13:26:36.202Z,264.38
2019-03-18T13:27:36.190Z,191.25
2019-03-18T13:28:36.178Z,247.50
2019-03-18T13:29:36.167Z,247.50
2019-03-18T13:30:36.165Z,225.00
2019-03-18T13:31:36.145Z,202.50
2019-03-18T13:32:36.135Z,202.50
2019-03-18T13:33:36.125Z,129.38
2019-03-18T13:34:36.112Z,135.00
2019-03-18T13:35:36.111Z,123.75
2019-03-18T13:36:36.092Z,129.38
2019-03-18T13:37:36.080Z,202.50
2019-03-18T13:38:36.066Z,151.88
2019-03-18T13:39:36.056Z,151.88
2019-03-18T13:40:36.056Z,157.50
2019-03-18T13:41:36.036Z,157.50
2019-03-18T13:42:36.022Z,151.88
2019-03-18T13:43:36.011Z,135.00
2019-03-18T13:44:36.002Z,118.12
2019-03-18T13:45:36.000Z,101.25
2019-03-18T13:46:35.997Z,78.75
2019-03-18T13:47:35.967Z,67.50
2019-03-18T13:48:35.955Z,56.25
2019-03-18T13:49:35.947Z,45.00
2019-03-18T13:50:36.165Z,39.38
2019-03-18T13:51:35.922Z,33.75
2019-03-18T13:52:35.911Z,33.75
2019-03-18T13:53:35.901Z,33.75
2019-03-18T13:54:35.890Z,33.75
2019-03-18T13:55:35.887Z,28.12
2019-03-18T13:56:35.868Z,28.12
2019-03-18T13:57:35.854Z,28.12
2019-03-18T13:58:35.846Z,28.12
2019-03-18T13:59:35.833Z,22.50
2019-03-18T14:00:35.844Z,22.50
2019-03-18T14:01:35.812Z,22.50
2019-03-18T14:02:35.803Z,22.50
2019-03-18T14:03:35.789Z,28.12
2019-03-18T14:04:35.776Z,22.50
2019-03-18T14:05:35.773Z,22.50
2019-03-18T14:06:35.755Z,28.12
2019-03-18T14:07:35.743Z,22.50
2019-03-18T14:08:35.734Z,22.50
2019-03-18T14:09:35.725Z,16.88
2019-03-18T14:10:35.720Z,16.88
2019-03-18T14:11:35.698Z,11.25
2019-03-18T14:12:37.119Z,11.25
2019-03-18T14:13:35.676Z,11.25
2019-03-18T14:14:35.665Z,16.88
2019-03-18T14:15:35.663Z,16.88
2019-03-18T14:16:35.644Z,22.50
2019-03-18T14:17:35.631Z,33.75
2019-03-18T14:18:35.620Z,33.75
2019-03-18T14:19:35.611Z,39.38
2019-03-18T14:20:36.059Z,45.00
2019-03-18T14:21:35.589Z,50.62
2019-03-18T14:22:35.575Z,56.25
2019-03-18T14:23:35.567Z,56.25
2019-03-18T14:24:35.554Z,61.88
2019-03-18T14:25:35.564Z,67.50
2019-03-18T14:26:35.531Z,67.50
2019-03-18T14:27:35.536Z,73.12
2019-03-18T14:28:35.510Z,78.75
2019-03-18T14:29:35.498Z,90.00
2019-03-18T14:30:35.488Z,95.62
2019-03-18T14:31:35.483Z,95.62
2019-03-18T14:32:35.465Z,101.25
2019-03-18T14:33:35.470Z,106.88
2019-03-18T14:34:35.443Z,112.50
2019-03-18T14:35:35.430Z,118.12
2019-03-18T14:36:35.434Z,123.75
2019-03-18T14:37:35.411Z,129.38
2019-03-18T14:38:38.255Z,135.00
2019-03-18T14:39:35.394Z,140.62
2019-03-18T14:40:35.374Z,140.62
2019-03-18T14:41:35.372Z,140.62
2019-03-18T14:42:35.353Z,146.25
2019-03-18T14:43:35.344Z,140.62
2019-03-18T14:44:35.334Z,140.62
2019-03-18T14:45:35.320Z,146.25
2019-03-18T14:46:35.317Z,140.62
2019-03-18T14:47:35.300Z,151.88
2019-03-18T14:48:35.286Z,168.75
2019-03-18T14:49:35.274Z,157.50
2019-03-18T14:50:35.263Z,168.75
2019-03-18T14:51:45.433Z,168.75
2019-03-18T14:52:36.241Z,196.88
2019-03-18T14:53:35.232Z,185.62
2019-03-18T14:54:35.225Z,174.38
2019-03-18T14:55:35.211Z,157.50
2019-03-18T14:56:35.207Z,151.88
2019-03-18T14:57:35.188Z,140.62
2019-03-18T14:58:35.175Z,95.62
2019-03-18T14:59:35.163Z,95.62
2019-03-18T15:00:35.153Z,101.25
2019-03-18T15:01:35.152Z,84.38
2019-03-18T15:02:35.130Z,101.25
2019-03-18T15:03:35.121Z,84.38
2019-03-18T15:04:35.109Z,84.38
2019-03-18T15:05:36.975Z,90.00
2019-03-18T15:06:35.095Z,95.62
2019-03-18T15:07:35.075Z,95.62
2019-03-18T15:08:35.063Z,95.62
2019-03-18T15:09:35.053Z,95.62
2019-03-18T15:10:35.041Z,95.62
2019-03-18T15:11:35.037Z,95.62
2019-03-18T15:12:35.017Z,95.62
2019-03-18T15:13:35.007Z,90.00
2019-03-18T15:14:34.994Z,90.00
2019-03-18T15:15:34.985Z,78.75
2019-03-18T15:16:34.988Z,67.50
2019-03-18T15:17:34.962Z,73.12
2019-03-18T15:18:34.951Z,67.50
2019-03-18T15:19:34.941Z,73.12
2019-03-18T15:20:34.929Z,67.50
2019-03-18T15:21:34.927Z,73.12
2019-03-18T15:22:34.907Z,73.12
2019-03-18T15:23:34.898Z,73.12
2019-03-18T15:24:34.886Z,73.12
2019-03-18T15:25:34.881Z,73.12
2019-03-18T15:26:34.937Z,67.50
2019-03-18T15:27:34.850Z,67.50
2019-03-18T15:28:34.839Z,67.50
2019-03-18T15:29:34.828Z,67.50
2019-03-18T15:30:34.820Z,61.88
2019-03-18T15:31:34.816Z,61.88
2019-03-18T15:32:34.795Z,61.88
2019-03-18T15:33:34.783Z,61.88
2019-03-18T15:34:34.772Z,61.88
2019-03-18T15:35:34.761Z,61.88
2019-03-18T15:36:34.763Z,56.25
2019-03-18T15:37:34.739Z,50.62
2019-03-18T15:38:34.726Z,56.25
2019-03-18T15:39:34.717Z,50.62
2019-03-18T15:40:34.708Z,61.88
2019-03-18T15:41:34.701Z,56.25
2019-03-18T15:42:34.694Z,56.25
2019-03-18T15:43:34.671Z,56.25
2019-03-18T15:44:34.687Z,61.88
2019-03-18T15:45:34.649Z,50.62
2019-03-18T15:46:34.640Z,45.00
2019-03-18T15:47:34.636Z,45.00
2019-03-18T15:48:34.631Z,50.62
2019-03-18T15:49:34.605Z,56.25
2019-03-18T15:50:34.593Z,56.25
2019-03-18T15:51:34.585Z,56.25
2019-03-18T15:52:34.580Z,56.25
2019-03-18T15:53:34.563Z,67.50
2019-03-18T15:54:34.549Z,90.00
2019-03-18T15:55:34.541Z,101.25
2019-03-18T15:56:34.525Z,101.25
2019-03-18T15:57:34.524Z,95.62
2019-03-18T15:58:34.519Z,84.38
2019-03-18T15:59:34.526Z,73.12
2019-03-18T16:00:34.481Z,61.88
2019-03-18T16:01:34.470Z,61.88
2019-03-18T16:02:34.470Z,61.88
2019-03-18T16:03:34.450Z,56.25
2019-03-18T16:04:34.442Z,50.62
2019-03-18T16:05:34.426Z,50.62
2019-03-18T16:06:34.415Z,45.00
2019-03-18T16:07:34.412Z,45.00
2019-03-18T16:08:34.394Z,50.62
2019-03-18T16:09:34.382Z,50.62
2019-03-18T16:10:34.370Z,50.62
2019-03-18T16:11:34.359Z,50.62
2019-03-18T16:12:34.357Z,50.62
2019-03-18T16:13:34.338Z,45.00
2019-03-18T16:14:34.327Z,39.38
2019-03-18T16:15:34.316Z,33.75
2019-03-18T16:16:34.307Z,28.12
2019-03-18T16:17:34.303Z,28.12
2019-03-18T16:18:34.282Z,22.50
2019-03-18T16:19:34.272Z,22.50
2019-03-18T16:20:34.262Z,22.50
2019-03-18T16:21:34.251Z,22.50
2019-03-18T16:22:34.253Z,22.50
2019-03-18T16:23:34.225Z,22.50
2019-03-18T16:24:34.214Z,28.12
2019-03-18T16:25:34.202Z,28.12
2019-03-18T16:26:34.193Z,28.12
2019-03-18T16:27:34.195Z,33.75
2019-03-18T16:28:34.170Z,33.75
2019-03-18T16:29:34.160Z,33.75
2019-03-18T16:30:34.147Z,33.75
2019-03-18T16:31:34.135Z,39.38
2019-03-18T16:32:34.145Z,33.75
2019-03-18T16:33:34.122Z,39.38
2019-03-18T16:34:34.197Z,33.75
2019-03-18T16:35:34.094Z,33.75
2019-03-18T16:36:34.088Z,33.75
2019-03-18T16:37:34.078Z,33.75
2019-03-18T16:38:34.061Z,28.12
2019-03-18T16:39:34.049Z,28.12
2019-03-18T16:40:34.036Z,28.12
2019-03-18T16:41:34.029Z,28.12
2019-03-18T16:42:34.022Z,28.12
2019-03-18T16:43:34.002Z,28.12
2019-03-18T16:44:33.991Z,28.12
2019-03-18T16:45:33.981Z,28.12
2019-03-18T16:46:33.973Z,28.12
2019-03-18T16:47:33.975Z,28.12
2019-03-18T16:48:33.947Z,28.12
2019-03-18T16:49:33.938Z,22.50
2019-03-18T16:50:33.925Z,22.50
2019-03-18T16:51:33.914Z,22.50
2019-03-18T16:52:36.053Z,22.50
2019-03-18T16:53:33.893Z,22.50
2019-03-18T16:54:33.879Z,22.50
2019-03-18T16:55:33.873Z,22.50
2019-03-18T16:56:33.859Z,22.50
2019-03-18T16:57:33.845Z,22.50
2019-03-18T16:58:33.842Z,22.50
2019-03-18T16:59:33.824Z,22.50
2019-03-18T17:00:33.813Z,22.50
2019-03-18T17:01:33.802Z,22.50
2019-03-18T17:02:33.792Z,22.50
2019-03-18T17:03:33.789Z,22.50
2019-03-18T17:04:33.767Z,22.50
2019-03-18T17:05:33.759Z,22.50
2019-03-18T17:06:33.748Z,16.88
2019-03-18T17:07:33.739Z,16.88
2019-03-18T17:08:33.732Z,16.88
2019-03-18T17:09:33.712Z,16.88
2019-03-18T17:10:33.700Z,16.88
2019-03-18T17:11:33.692Z,16.88
2019-03-18T17:12:33.679Z,11.25
2019-03-18T17:13:33.676Z,11.25
2019-03-18T17:14:33.655Z,11.25
2019-03-18T17:15:33.644Z,11.25
2019-03-18T17:16:33.636Z,11.25
2019-03-18T17:17:33.622Z,11.25
2019-03-18T17:18:33.621Z,11.25
2019-03-18T17:19:33.601Z,11.25
2019-03-18T17:20:33.594Z,11.25
2019-03-18T17:21:33.581Z,11.25
2019-03-18T17:22:33.572Z,11.25
2019-03-18T17:23:33.567Z,11.25
2019-03-18T17:24:33.545Z,5.62
2019-03-18T17:25:33.532Z,5.62
2019-03-18T17:26:33.584Z,5.62
2019-03-18T17:27:33.511Z,5.62
2019-03-18T17:28:33.509Z,5.62
2019-03-18T17:29:33.488Z,5.62
2019-03-18T17:30:33.476Z,5.62
2019-03-18T17:31:33.466Z,5.62
2019-03-18T17:32:33.456Z,5.62
2019-03-18T17:33:33.460Z,5.62
2019-03-18T17:34:33.435Z,5.62
2019-03-18T17:35:33.423Z,0.00
2019-03-18T17:36:33.415Z,0.00
2019-03-18T17:37:33.405Z,0.00
2019-03-18T17:38:33.402Z,0.00